TAF Text Data
IDs:
Format:
Raw Decoded Include METAR

Data at: 1355 UTC 10 Aug 2022

KSAV 101120Z 1012/1112 22006KT P6SM FEW035 BKN250
  FM101800 19009KT P6SM VCSH BKN050
  FM102300 19006KT P6SM SCT060 BKN150